sensor_id;sensor_type;location;lat;lon;timestamp;temperature;humidity
70867;HTU21D;58487;53.474;49.470;2023-04-03T00:00:18;7.73;73.57
70867;HTU21D;58487;53.474;49.470;2023-04-03T00:02:45;7.74;72.90
70867;HTU21D;58487;53.474;49.470;2023-04-03T00:05:11;7.75;73.58
70867;HTU21D;58487;53.474;49.470;2023-04-03T00:07:37;7.73;74.15
70867;HTU21D;58487;53.474;49.470;2023-04-03T00:10:04;7.73;73.10
70867;HTU21D;58487;53.474;49.470;2023-04-03T00:12:30;7.73;74.02
70867;HTU21D;58487;53.474;49.470;2023-04-03T00:14:56;7.70;74.75
70867;HTU21D;58487;53.474;49.470;2023-04-03T00:17:22;7.70;73.52
70867;HTU21D;58487;53.474;49.470;2023-04-03T00:19:49;7.68;73.00
70867;HTU21D;58487;53.474;49.470;2023-04-03T00:22:15;7.63;74.76
70867;HTU21D;58487;53.474;49.470;2023-04-03T00:24:41;7.64;74.76
70867;HTU21D;58487;53.474;49.470;2023-04-03T00:27:07;7.63;75.06
70867;HTU21D;58487;53.474;49.470;2023-04-03T00:29:34;7.63;74.18
70867;HTU21D;58487;53.474;49.470;2023-04-03T00:32:00;7.70;74.23
70867;HTU21D;58487;53.474;49.470;2023-04-03T00:34:26;7.55;74.12
70867;HTU21D;58487;53.474;49.470;2023-04-03T00:36:53;7.58;74.75
70867;HTU21D;58487;53.474;49.470;2023-04-03T00:39:19;7.39;74.57
70867;HTU21D;58487;53.474;49.470;2023-04-03T00:41:45;7.22;75.60
70867;HTU21D;58487;53.474;49.470;2023-04-03T00:46:54;7.08;75.76
70867;HTU21D;58487;53.474;49.470;2023-04-03T00:49:20;7.04;75.87
70867;HTU21D;58487;53.474;49.470;2023-04-03T00:51:47;7.02;75.77
70867;HTU21D;58487;53.474;49.470;2023-04-03T00:54:13;7.05;75.95
70867;HTU21D;58487;53.474;49.470;2023-04-03T00:56:39;7.11;75.15
70867;HTU21D;58487;53.474;49.470;2023-04-03T00:59:18;7.09;76.17
70867;HTU21D;58487;53.474;49.470;2023-04-03T01:01:48;7.02;76.16
70867;HTU21D;58487;53.474;49.470;2023-04-03T01:04:32;7.01;76.15
70867;HTU21D;58487;53.474;49.470;2023-04-03T01:07:05;6.98;76.21
70867;HTU21D;58487;53.474;49.470;2023-04-03T01:09:34;6.79;77.61
70867;HTU21D;58487;53.474;49.470;2023-04-03T01:14:44;6.58;77.35
70867;HTU21D;58487;53.474;49.470;2023-04-03T01:17:30;6.63;77.08
70867;HTU21D;58487;53.474;49.470;2023-04-03T01:22:51;6.79;77.78
70867;HTU21D;58487;53.474;49.470;2023-04-03T01:25:22;6.85;77.44
70867;HTU21D;58487;53.474;49.470;2023-04-03T01:27:48;6.67;77.72
70867;HTU21D;58487;53.474;49.470;2023-04-03T01:30:18;6.66;77.18
70867;HTU21D;58487;53.474;49.470;2023-04-03T01:32:44;6.65;77.54
70867;HTU21D;58487;53.474;49.470;2023-04-03T01:35:10;6.60;78.18
70867;HTU21D;58487;53.474;49.470;2023-04-03T01:37:37;6.63;77.91
70867;HTU21D;58487;53.474;49.470;2023-04-03T01:40:03;6.67;78.39
70867;HTU21D;58487;53.474;49.470;2023-04-03T01:42:29;6.67;76.78
70867;HTU21D;58487;53.474;49.470;2023-04-03T01:44:55;6.60;78.11
70867;HTU21D;58487;53.474;49.470;2023-04-03T01:47:22;6.58;77.44
70867;HTU21D;58487;53.474;49.470;2023-04-03T01:49:48;6.64;77.53
70867;HTU21D;58487;53.474;49.470;2023-04-03T01:52:14;6.70;77.72
70867;HTU21D;58487;53.474;49.470;2023-04-03T01:54:40;6.70;77.27
70867;HTU21D;58487;53.474;49.470;2023-04-03T01:57:06;6.59;77.20
70867;HTU21D;58487;53.474;49.470;2023-04-03T01:59:32;6.60;77.09
70867;HTU21D;58487;53.474;49.470;2023-04-03T02:01:58;6.45;78.11
70867;HTU21D;58487;53.474;49.470;2023-04-03T02:04:24;6.44;77.49
70867;HTU21D;58487;53.474;49.470;2023-04-03T02:06:50;6.36;77.98
70867;HTU21D;58487;53.474;49.470;2023-04-03T02:09:16;6.42;77.13
70867;HTU21D;58487;53.474;49.470;2023-04-03T02:11:42;6.51;77.69
70867;HTU21D;58487;53.474;49.470;2023-04-03T02:14:09;6.53;77.52
70867;HTU21D;58487;53.474;49.470;2023-04-03T02:16:35;6.56;77.96
70867;HTU21D;58487;53.474;49.470;2023-04-03T02:19:01;6.53;77.47
70867;HTU21D;58487;53.474;49.470;2023-04-03T02:21:27;6.54;77.23
70867;HTU21D;58487;53.474;49.470;2023-04-03T02:23:53;6.54;76.80
70867;HTU21D;58487;53.474;49.470;2023-04-03T02:26:19;6.57;77.05
70867;HTU21D;58487;53.474;49.470;2023-04-03T02:28:46;6.63;76.55
70867;HTU21D;58487;53.474;49.470;2023-04-03T02:31:13;6.66;77.42
70867;HTU21D;58487;53.474;49.470;2023-04-03T02:33:39;6.76;76.58
70867;HTU21D;58487;53.474;49.470;2023-04-03T02:36:06;6.81;76.44
70867;HTU21D;58487;53.474;49.470;2023-04-03T02:38:33;6.74;76.22
70867;HTU21D;58487;53.474;49.470;2023-04-03T02:41:10;6.75;77.18
70867;HTU21D;58487;53.474;49.470;2023-04-03T02:43:37;6.84;75.94
70867;HTU21D;58487;53.474;49.470;2023-04-03T02:46:04;6.81;77.06
70867;HTU21D;58487;53.474;49.470;2023-04-03T02:48:31;6.70;77.18
70867;HTU21D;58487;53.474;49.470;2023-04-03T02:50:57;6.60;76.68
70867;HTU21D;58487;53.474;49.470;2023-04-03T02:53:23;6.56;76.21
70867;HTU21D;58487;53.474;49.470;2023-04-03T02:55:49;6.45;76.86
70867;HTU21D;58487;53.474;49.470;2023-04-03T02:58:15;6.46;77.40
70867;HTU21D;58487;53.474;49.470;2023-04-03T03:00:42;6.55;76.76
70867;HTU21D;58487;53.474;49.470;2023-04-03T03:03:08;6.43;78.07
70867;HTU21D;58487;53.474;49.470;2023-04-03T03:05:34;6.40;77.34
70867;HTU21D;58487;53.474;49.470;2023-04-03T03:08:00;6.31;77.89
70867;HTU21D;58487;53.474;49.470;2023-04-03T03:10:26;6.38;77.31
70867;HTU21D;58487;53.474;49.470;2023-04-03T03:12:52;6.48;76.82
70867;HTU21D;58487;53.474;49.470;2023-04-03T03:15:19;6.41;77.22
70867;HTU21D;58487;53.474;49.470;2023-04-03T03:17:45;6.46;76.25
70867;HTU21D;58487;53.474;49.470;2023-04-03T03:20:14;6.50;75.65
70867;HTU21D;58487;53.474;49.470;2023-04-03T03:22:41;6.49;76.30
70867;HTU21D;58487;53.474;49.470;2023-04-03T03:25:07;6.37;77.65
70867;HTU21D;58487;53.474;49.470;2023-04-03T03:27:33;6.39;76.76
70867;HTU21D;58487;53.474;49.470;2023-04-03T03:29:59;6.48;75.91
70867;HTU21D;58487;53.474;49.470;2023-04-03T03:32:25;6.49;76.38
70867;HTU21D;58487;53.474;49.470;2023-04-03T03:34:51;6.57;75.11
70867;HTU21D;58487;53.474;49.470;2023-04-03T03:37:17;6.54;75.12
70867;HTU21D;58487;53.474;49.470;2023-04-03T03:39:43;6.55;75.36
70867;HTU21D;58487;53.474;49.470;2023-04-03T03:42:09;6.63;75.43
70867;HTU21D;58487;53.474;49.470;2023-04-03T03:44:36;6.68;75.28
70867;HTU21D;58487;53.474;49.470;2023-04-03T03:47:02;6.78;75.21
70867;HTU21D;58487;53.474;49.470;2023-04-03T03:49:29;6.88;75.36
70867;HTU21D;58487;53.474;49.470;2023-04-03T03:51:55;6.87;75.09
70867;HTU21D;58487;53.474;49.470;2023-04-03T03:54:21;7.02;74.06
70867;HTU21D;58487;53.474;49.470;2023-04-03T03:56:47;7.07;74.23
70867;HTU21D;58487;53.474;49.470;2023-04-03T03:59:13;7.13;74.59
70867;HTU21D;58487;53.474;49.470;2023-04-03T04:01:40;7.20;74.78
70867;HTU21D;58487;53.474;49.470;2023-04-03T04:04:05;7.15;74.21
70867;HTU21D;58487;53.474;49.470;2023-04-03T04:06:31;7.20;73.48
70867;HTU21D;58487;53.474;49.470;2023-04-03T04:08:57;7.24;73.99
70867;HTU21D;58487;53.474;49.470;2023-04-03T04:11:23;7.20;74.24
70867;HTU21D;58487;53.474;49.470;2023-04-03T04:13:50;7.25;73.40
70867;HTU21D;58487;53.474;49.470;2023-04-03T04:16:16;7.31;73.90
70867;HTU21D;58487;53.474;49.470;2023-04-03T04:18:42;7.46;73.51
70867;HTU21D;58487;53.474;49.470;2023-04-03T04:21:08;7.54;73.64
70867;HTU21D;58487;53.474;49.470;2023-04-03T04:23:34;7.70;72.77
70867;HTU21D;58487;53.474;49.470;2023-04-03T04:26:00;7.76;73.55
70867;HTU21D;58487;53.474;49.470;2023-04-03T04:28:26;7.73;74.08
70867;HTU21D;58487;53.474;49.470;2023-04-03T04:30:52;7.81;73.02
70867;HTU21D;58487;53.474;49.470;2023-04-03T04:33:18;7.96;72.83
70867;HTU21D;58487;53.474;49.470;2023-04-03T04:35:47;7.97;73.13
70867;HTU21D;58487;53.474;49.470;2023-04-03T04:38:13;7.97;72.41
70867;HTU21D;58487;53.474;49.470;2023-04-03T04:40:39;8.05;72.13
70867;HTU21D;58487;53.474;49.470;2023-04-03T04:43:06;8.17;72.96
70867;HTU21D;58487;53.474;49.470;2023-04-03T04:45:32;8.23;72.70
70867;HTU21D;58487;53.474;49.470;2023-04-03T04:47:58;8.24;71.39
70867;HTU21D;58487;53.474;49.470;2023-04-03T04:50:24;8.17;72.09
70867;HTU21D;58487;53.474;49.470;2023-04-03T04:52:50;8.24;71.03
70867;HTU21D;58487;53.474;49.470;2023-04-03T04:55:16;8.34;71.11
70867;HTU21D;58487;53.474;49.470;2023-04-03T04:57:43;8.34;71.81
70867;HTU21D;58487;53.474;49.470;2023-04-03T05:00:09;8.45;70.97
70867;HTU21D;58487;53.474;49.470;2023-04-03T05:02:36;8.36;72.37
70867;HTU21D;58487;53.474;49.470;2023-04-03T05:05:02;8.30;71.04
70867;HTU21D;58487;53.474;49.470;2023-04-03T05:07:29;8.35;71.00
70867;HTU21D;58487;53.474;49.470;2023-04-03T05:09:55;8.53;71.26
70867;HTU21D;58487;53.474;49.470;2023-04-03T05:12:21;8.71;69.53
70867;HTU21D;58487;53.474;49.470;2023-04-03T05:14:48;8.74;71.66
70867;HTU21D;58487;53.474;49.470;2023-04-03T05:17:14;8.90;70.03
70867;HTU21D;58487;53.474;49.470;2023-04-03T05:19:40;8.95;69.73
70867;HTU21D;58487;53.474;49.470;2023-04-03T05:22:06;8.97;69.33
70867;HTU21D;58487;53.474;49.470;2023-04-03T05:24:32;8.95;70.32
70867;HTU21D;58487;53.474;49.470;2023-04-03T05:26:59;9.07;70.83
70867;HTU21D;58487;53.474;49.470;2023-04-03T05:29:25;9.09;70.16
70867;HTU21D;58487;53.474;49.470;2023-04-03T05:31:51;9.15;69.33
70867;HTU21D;58487;53.474;49.470;2023-04-03T05:34:18;9.23;69.45
70867;HTU21D;58487;53.474;49.470;2023-04-03T05:36:44;9.17;71.63
70867;HTU21D;58487;53.474;49.470;2023-04-03T05:39:10;9.30;71.65
70867;HTU21D;58487;53.474;49.470;2023-04-03T05:41:36;9.25;70.68
70867;HTU21D;58487;53.474;49.470;2023-04-03T05:44:03;9.31;70.58
70867;HTU21D;58487;53.474;49.470;2023-04-03T05:46:29;9.44;71.11
70867;HTU21D;58487;53.474;49.470;2023-04-03T05:48:55;9.50;70.81
70867;HTU21D;58487;53.474;49.470;2023-04-03T05:51:24;9.41;71.40
70867;HTU21D;58487;53.474;49.470;2023-04-03T05:54:06;9.55;69.59
70867;HTU21D;58487;53.474;49.470;2023-04-03T05:56:33;9.71;68.60
70867;HTU21D;58487;53.474;49.470;2023-04-03T05:58:59;9.80;69.56
70867;HTU21D;58487;53.474;49.470;2023-04-03T06:01:25;9.88;68.60
70867;HTU21D;58487;53.474;49.470;2023-04-03T06:03:51;9.88;68.94
70867;HTU21D;58487;53.474;49.470;2023-04-03T06:06:17;9.97;68.78
70867;HTU21D;58487;53.474;49.470;2023-04-03T06:08:43;10.05;68.10
70867;HTU21D;58487;53.474;49.470;2023-04-03T06:11:09;10.13;66.70
70867;HTU21D;58487;53.474;49.470;2023-04-03T06:13:35;10.22;68.57
70867;HTU21D;58487;53.474;49.470;2023-04-03T06:16:01;10.33;68.28
70867;HTU21D;58487;53.474;49.470;2023-04-03T06:18:28;10.46;67.73
70867;HTU21D;58487;53.474;49.470;2023-04-03T06:20:54;10.56;66.75
70867;HTU21D;58487;53.474;49.470;2023-04-03T06:23:20;10.63;67.45
70867;HTU21D;58487;53.474;49.470;2023-04-03T06:25:46;10.78;67.34
70867;HTU21D;58487;53.474;49.470;2023-04-03T06:28:13;10.87;66.61
70867;HTU21D;58487;53.474;49.470;2023-04-03T06:30:39;10.82;66.93
70867;HTU21D;58487;53.474;49.470;2023-04-03T06:33:05;10.88;67.41
70867;HTU21D;58487;53.474;49.470;2023-04-03T06:35:31;10.95;65.71
70867;HTU21D;58487;53.474;49.470;2023-04-03T06:37:57;11.02;65.15
70867;HTU21D;58487;53.474;49.470;2023-04-03T06:40:25;11.15;64.89
70867;HTU21D;58487;53.474;49.470;2023-04-03T06:42:51;11.29;65.82
70867;HTU21D;58487;53.474;49.470;2023-04-03T06:45:17;11.16;64.79
70867;HTU21D;58487;53.474;49.470;2023-04-03T06:47:44;11.23;65.14
70867;HTU21D;58487;53.474;49.470;2023-04-03T06:50:11;11.25;65.10
70867;HTU21D;58487;53.474;49.470;2023-04-03T06:52:40;11.33;64.56
70867;HTU21D;58487;53.474;49.470;2023-04-03T06:55:07;11.48;65.15
70867;HTU21D;58487;53.474;49.470;2023-04-03T06:57:34;11.69;64.81
70867;HTU21D;58487;53.474;49.470;2023-04-03T07:00:00;11.85;64.05
70867;HTU21D;58487;53.474;49.470;2023-04-03T07:02:27;11.85;64.82
70867;HTU21D;58487;53.474;49.470;2023-04-03T07:04:53;11.86;64.46
70867;HTU21D;58487;53.474;49.470;2023-04-03T07:07:19;11.91;63.31
70867;HTU21D;58487;53.474;49.470;2023-04-03T07:09:45;12.01;63.41
70867;HTU21D;58487;53.474;49.470;2023-04-03T07:12:13;12.13;63.63
70867;HTU21D;58487;53.474;49.470;2023-04-03T07:14:40;12.22;62.52
70867;HTU21D;58487;53.474;49.470;2023-04-03T07:17:07;12.32;62.76
70867;HTU21D;58487;53.474;49.470;2023-04-03T07:19:33;12.50;61.07
70867;HTU21D;58487;53.474;49.470;2023-04-03T07:22:00;12.60;60.70
70867;HTU21D;58487;53.474;49.470;2023-04-03T07:24:26;12.72;60.43
70867;HTU21D;58487;53.474;49.470;2023-04-03T07:26:53;12.75;59.34
70867;HTU21D;58487;53.474;49.470;2023-04-03T07:29:19;12.79;60.08
70867;HTU21D;58487;53.474;49.470;2023-04-03T07:31:47;12.87;60.96
70867;HTU21D;58487;53.474;49.470;2023-04-03T07:34:13;12.97;61.10
70867;HTU21D;58487;53.474;49.470;2023-04-03T07:36:40;13.04;61.21
70867;HTU21D;58487;53.474;49.470;2023-04-03T07:39:06;13.16;60.86
70867;HTU21D;58487;53.474;49.470;2023-04-03T07:41:34;13.24;61.68
70867;HTU21D;58487;53.474;49.470;2023-04-03T07:44:00;13.35;61.83
70867;HTU21D;58487;53.474;49.470;2023-04-03T07:46:26;13.51;61.68
70867;HTU21D;58487;53.474;49.470;2023-04-03T07:48:52;13.65;61.18
70867;HTU21D;58487;53.474;49.470;2023-04-03T07:51:19;13.77;60.15
70867;HTU21D;58487;53.474;49.470;2023-04-03T07:53:45;13.74;59.08
70867;HTU21D;58487;53.474;49.470;2023-04-03T07:56:11;13.89;60.56
70867;HTU21D;58487;53.474;49.470;2023-04-03T07:58:37;14.09;60.10
70867;HTU21D;58487;53.474;49.470;2023-04-03T08:01:04;14.18;60.68
70867;HTU21D;58487;53.474;49.470;2023-04-03T08:03:30;14.32;59.21
70867;HTU21D;58487;53.474;49.470;2023-04-03T08:06:05;14.36;59.25
70867;HTU21D;58487;53.474;49.470;2023-04-03T08:08:31;13.73;61.51
70867;HTU21D;58487;53.474;49.470;2023-04-03T08:11:00;13.46;62.01
70867;HTU21D;58487;53.474;49.470;2023-04-03T08:13:26;12.96;61.36
70867;HTU21D;58487;53.474;49.470;2023-04-03T08:15:52;12.88;61.25
70867;HTU21D;58487;53.474;49.470;2023-04-03T08:18:18;12.59;63.84
70867;HTU21D;58487;53.474;49.470;2023-04-03T08:20:47;11.62;67.05
70867;HTU21D;58487;53.474;49.470;2023-04-03T08:23:13;11.86;65.88
70867;HTU21D;58487;53.474;49.470;2023-04-03T08:25:41;12.18;65.15
70867;HTU21D;58487;53.474;49.470;2023-04-03T08:28:08;11.66;67.32
70867;HTU21D;58487;53.474;49.470;2023-04-03T08:30:34;11.57;67.10
70867;HTU21D;58487;53.474;49.470;2023-04-03T08:33:02;11.31;68.78
70867;HTU21D;58487;53.474;49.470;2023-04-03T08:35:28;11.61;68.31
70867;HTU21D;58487;53.474;49.470;2023-04-03T08:37:55;11.85;67.27
70867;HTU21D;58487;53.474;49.470;2023-04-03T08:40:22;11.89;65.62
70867;HTU21D;58487;53.474;49.470;2023-04-03T08:43:03;11.77;66.14
70867;HTU21D;58487;53.474;49.470;2023-04-03T08:45:42;11.27;69.20
70867;HTU21D;58487;53.474;49.470;2023-04-03T08:48:18;11.54;66.67
70867;HTU21D;58487;53.474;49.470;2023-04-03T08:50:47;11.84;64.90
70867;HTU21D;58487;53.474;49.470;2023-04-03T08:53:20;12.14;64.76
70867;HTU21D;58487;53.474;49.470;2023-04-03T08:55:51;11.83;65.66
70867;HTU21D;58487;53.474;49.470;2023-04-03T08:58:21;11.43;65.51
70867;HTU21D;58487;53.474;49.470;2023-04-03T09:01:04;10.98;69.14
70867;HTU21D;58487;53.474;49.470;2023-04-03T09:03:34;11.36;65.53
70867;HTU21D;58487;53.474;49.470;2023-04-03T09:06:20;11.98;64.69
70867;HTU21D;58487;53.474;49.470;2023-04-03T09:17:45;12.47;61.49
70867;HTU21D;58487;53.474;49.470;2023-04-03T09:22:47;12.79;62.99
70867;HTU21D;58487;53.474;49.470;2023-04-03T09:25:33;12.72;65.17
70867;HTU21D;58487;53.474;49.470;2023-04-03T09:28:00;13.62;60.57
70867;HTU21D;58487;53.474;49.470;2023-04-03T09:30:27;14.60;59.01
70867;HTU21D;58487;53.474;49.470;2023-04-03T09:32:56;15.24;56.21
70867;HTU21D;58487;53.474;49.470;2023-04-03T09:35:26;14.65;57.60
70867;HTU21D;58487;53.474;49.470;2023-04-03T09:37:58;14.98;57.79
70867;HTU21D;58487;53.474;49.470;2023-04-03T09:43:19;14.50;58.20
70867;HTU21D;58487;53.474;49.470;2023-04-03T09:45:47;14.92;55.57
70867;HTU21D;58487;53.474;49.470;2023-04-03T09:51:01;14.91;52.68
70867;HTU21D;58487;53.474;49.470;2023-04-03T09:53:40;15.24;53.10
70867;HTU21D;58487;53.474;49.470;2023-04-03T09:59:06;15.81;52.85
70867;HTU21D;58487;53.474;49.470;2023-04-03T10:01:35;16.51;51.66
70867;HTU21D;58487;53.474;49.470;2023-04-03T10:04:16;16.63;48.66
70867;HTU21D;58487;53.474;49.470;2023-04-03T10:06:51;16.65;47.09
70867;HTU21D;58487;53.474;49.470;2023-04-03T10:09:25;16.34;46.24
70867;HTU21D;58487;53.474;49.470;2023-04-03T10:12:05;15.86;48.02
70867;HTU21D;58487;53.474;49.470;2023-04-03T10:14:39;16.76;48.44
70867;HTU21D;58487;53.474;49.470;2023-04-03T10:28:54;16.93;45.37
70867;HTU21D;58487;53.474;49.470;2023-04-03T10:31:43;17.08;45.78
70867;HTU21D;58487;53.474;49.470;2023-04-03T10:34:32;17.60;46.31
70867;HTU21D;58487;53.474;49.470;2023-04-03T10:37:24;17.25;45.70
70867;HTU21D;58487;53.474;49.470;2023-04-03T10:43:16;16.37;47.99
70867;HTU21D;58487;53.474;49.470;2023-04-03T10:46:04;16.43;47.79
70867;HTU21D;58487;53.474;49.470;2023-04-03T10:51:25;16.59;47.78
70867;HTU21D;58487;53.474;49.470;2023-04-03T10:56:55;17.35;46.93
70867;HTU21D;58487;53.474;49.470;2023-04-03T11:02:07;17.60;45.69
70867;HTU21D;58487;53.474;49.470;2023-04-03T11:04:40;17.47;46.60
70867;HTU21D;58487;53.474;49.470;2023-04-03T11:07:23;17.22;46.10
70867;HTU21D;58487;53.474;49.470;2023-04-03T11:09:55;17.21;47.06
70867;HTU21D;58487;53.474;49.470;2023-04-03T11:12:38;17.28;46.92
70867;HTU21D;58487;53.474;49.470;2023-04-03T11:15:15;17.37;48.19
70867;HTU21D;58487;53.474;49.470;2023-04-03T11:18:01;18.21;47.68
70867;HTU21D;58487;53.474;49.470;2023-04-03T11:20:32;18.80;45.67
70867;HTU21D;58487;53.474;49.470;2023-04-03T11:23:25;19.44;46.04
70867;HTU21D;58487;53.474;49.470;2023-04-03T11:26:07;19.24;43.33
70867;HTU21D;58487;53.474;49.470;2023-04-03T11:28:36;18.54;46.64
70867;HTU21D;58487;53.474;49.470;2023-04-03T11:34:27;19.38;44.06
70867;HTU21D;58487;53.474;49.470;2023-04-03T11:36:59;19.61;42.95
70867;HTU21D;58487;53.474;49.470;2023-04-03T11:42:17;19.32;43.21
70867;HTU21D;58487;53.474;49.470;2023-04-03T11:44:48;18.56;45.39
70867;HTU21D;58487;53.474;49.470;2023-04-03T11:47:48;17.96;47.12
70867;HTU21D;58487;53.474;49.470;2023-04-03T12:35:01;19.35;44.99
70867;HTU21D;58487;53.474;49.470;2023-04-03T12:43:09;18.49;47.23
70867;HTU21D;58487;53.474;49.470;2023-04-03T12:45:44;18.38;46.46
70867;HTU21D;58487;53.474;49.470;2023-04-03T12:48:17;18.52;44.93
70867;HTU21D;58487;53.474;49.470;2023-04-03T12:50:46;19.30;44.19
70867;HTU21D;58487;53.474;49.470;2023-04-03T12:53:22;20.37;44.24
70867;HTU21D;58487;53.474;49.470;2023-04-03T12:56:25;20.65;43.78
70867;HTU21D;58487;53.474;49.470;2023-04-03T12:58:54;20.49;43.19
70867;HTU21D;58487;53.474;49.470;2023-04-03T13:01:26;20.91;43.29
70867;HTU21D;58487;53.474;49.470;2023-04-03T13:03:55;21.06;42.84
70867;HTU21D;58487;53.474;49.470;2023-04-03T13:06:27;20.86;43.79
70867;HTU21D;58487;53.474;49.470;2023-04-03T13:08:56;21.62;43.75
70867;HTU21D;58487;53.474;49.470;2023-04-03T13:11:24;21.82;43.03
70867;HTU21D;58487;53.474;49.470;2023-04-03T13:14:03;20.68;42.55
70867;HTU21D;58487;53.474;49.470;2023-04-03T13:16:32;19.88;44.33
70867;HTU21D;58487;53.474;49.470;2023-04-03T13:18:59;19.23;45.90
70867;HTU21D;58487;53.474;49.470;2023-04-03T13:21:30;18.94;44.32
70867;HTU21D;58487;53.474;49.470;2023-04-03T13:24:00;18.70;43.38
70867;HTU21D;58487;53.474;49.470;2023-04-03T13:26:30;18.82;44.34
70867;HTU21D;58487;53.474;49.470;2023-04-03T13:29:31;19.48;45.97
70867;HTU21D;58487;53.474;49.470;2023-04-03T13:31:59;20.14;45.73
70867;HTU21D;58487;53.474;49.470;2023-04-03T13:34:37;20.53;44.58
70867;HTU21D;58487;53.474;49.470;2023-04-03T13:37:04;21.53;45.62
70867;HTU21D;58487;53.474;49.470;2023-04-03T13:39:39;22.23;41.94
70867;HTU21D;58487;53.474;49.470;2023-04-03T13:42:36;22.43;41.59
70867;HTU21D;58487;53.474;49.470;2023-04-03T13:47:40;21.25;42.95
70867;HTU21D;58487;53.474;49.470;2023-04-03T13:50:15;21.13;41.62
70867;HTU21D;58487;53.474;49.470;2023-04-03T13:53:08;21.27;42.18
70867;HTU21D;58487;53.474;49.470;2023-04-03T13:55:39;20.93;43.00
70867;HTU21D;58487;53.474;49.470;2023-04-03T13:58:26;20.83;42.36
70867;HTU21D;58487;53.474;49.470;2023-04-03T14:01:17;21.39;42.21
70867;HTU21D;58487;53.474;49.470;2023-04-03T14:04:31;21.51;42.36
70867;HTU21D;58487;53.474;49.470;2023-04-03T14:06:32;21.73;42.20
70867;HTU21D;58487;53.474;49.470;2023-04-03T14:08:58;21.48;42.55
70867;HTU21D;58487;53.474;49.470;2023-04-03T14:11:28;21.24;43.51
70867;HTU21D;58487;53.474;49.470;2023-04-03T14:13:58;20.00;45.72
70867;HTU21D;58487;53.474;49.470;2023-04-03T14:16:28;19.30;45.60
70867;HTU21D;58487;53.474;49.470;2023-04-03T14:18:56;18.80;45.46
70867;HTU21D;58487;53.474;49.470;2023-04-03T14:21:22;18.88;45.35
70867;HTU21D;58487;53.474;49.470;2023-04-03T14:23:49;19.72;44.54
70867;HTU21D;58487;53.474;49.470;2023-04-03T14:26:23;20.29;44.61
70867;HTU21D;58487;53.474;49.470;2023-04-03T14:28:52;20.62;43.91
70867;HTU21D;58487;53.474;49.470;2023-04-03T14:31:19;20.87;43.90
70867;HTU21D;58487;53.474;49.470;2023-04-03T14:33:46;20.89;43.59
70867;HTU21D;58487;53.474;49.470;2023-04-03T14:36:17;20.79;43.91
70867;HTU21D;58487;53.474;49.470;2023-04-03T14:38:44;20.83;44.19
70867;HTU21D;58487;53.474;49.470;2023-04-03T14:41:12;20.56;44.07
70867;HTU21D;58487;53.474;49.470;2023-04-03T14:43:39;20.37;43.49
70867;HTU21D;58487;53.474;49.470;2023-04-03T14:46:15;20.03;43.50
70867;HTU21D;58487;53.474;49.470;2023-04-03T14:48:41;19.55;46.51
70867;HTU21D;58487;53.474;49.470;2023-04-03T14:51:10;19.18;44.18
70867;HTU21D;58487;53.474;49.470;2023-04-03T14:53:37;18.96;44.24
70867;HTU21D;58487;53.474;49.470;2023-04-03T14:56:19;18.74;45.67
70867;HTU21D;58487;53.474;49.470;2023-04-03T14:58:49;18.56;44.91
70867;HTU21D;58487;53.474;49.470;2023-04-03T15:01:17;18.29;46.36
70867;HTU21D;58487;53.474;49.470;2023-04-03T15:03:44;18.38;45.27
70867;HTU21D;58487;53.474;49.470;2023-04-03T15:06:12;18.22;46.06
70867;HTU21D;58487;53.474;49.470;2023-04-03T15:08:39;18.12;45.80
70867;HTU21D;58487;53.474;49.470;2023-04-03T15:11:07;17.96;46.50
70867;HTU21D;58487;53.474;49.470;2023-04-03T15:13:34;17.88;46.31
70867;HTU21D;58487;53.474;49.470;2023-04-03T15:16:00;17.76;47.57
70867;HTU21D;58487;53.474;49.470;2023-04-03T15:18:28;17.77;47.12
70867;HTU21D;58487;53.474;49.470;2023-04-03T15:20:56;17.59;47.20
70867;HTU21D;58487;53.474;49.470;2023-04-03T15:23:23;17.24;47.67
70867;HTU21D;58487;53.474;49.470;2023-04-03T15:25:52;17.11;47.42
70867;HTU21D;58487;53.474;49.470;2023-04-03T15:28:32;17.06;47.54
70867;HTU21D;58487;53.474;49.470;2023-04-03T15:30:59;16.95;48.19
70867;HTU21D;58487;53.474;49.470;2023-04-03T15:33:26;16.73;47.80
70867;HTU21D;58487;53.474;49.470;2023-04-03T15:35:52;16.82;48.87
70867;HTU21D;58487;53.474;49.470;2023-04-03T15:38:18;16.55;49.08
70867;HTU21D;58487;53.474;49.470;2023-04-03T15:40:45;16.49;49.85
70867;HTU21D;58487;53.474;49.470;2023-04-03T15:43:14;16.37;51.21
70867;HTU21D;58487;53.474;49.470;2023-04-03T15:45:41;16.44;50.30
70867;HTU21D;58487;53.474;49.470;2023-04-03T15:48:08;16.16;51.89
70867;HTU21D;58487;53.474;49.470;2023-04-03T15:50:35;16.02;51.79
70867;HTU21D;58487;53.474;49.470;2023-04-03T15:53:01;15.93;51.70
70867;HTU21D;58487;53.474;49.470;2023-04-03T15:55:35;16.00;51.24
70867;HTU21D;58487;53.474;49.470;2023-04-03T15:58:02;16.02;51.90
70867;HTU21D;58487;53.474;49.470;2023-04-03T16:00:32;15.93;51.56
70867;HTU21D;58487;53.474;49.470;2023-04-03T16:03:08;15.89;51.33
70867;HTU21D;58487;53.474;49.470;2023-04-03T16:05:44;15.49;52.92
70867;HTU21D;58487;53.474;49.470;2023-04-03T16:08:11;15.28;54.25
70867;HTU21D;58487;53.474;49.470;2023-04-03T16:10:39;15.39;54.03
70867;HTU21D;58487;53.474;49.470;2023-04-03T16:13:06;15.53;53.36
70867;HTU21D;58487;53.474;49.470;2023-04-03T16:15:34;15.55;52.49
70867;HTU21D;58487;53.474;49.470;2023-04-03T16:18:01;15.54;52.36
70867;HTU21D;58487;53.474;49.470;2023-04-03T16:20:28;15.54;53.01
70867;HTU21D;58487;53.474;49.470;2023-04-03T16:22:56;15.57;53.69
70867;HTU21D;58487;53.474;49.470;2023-04-03T16:25:24;15.53;52.35
70867;HTU21D;58487;53.474;49.470;2023-04-03T16:27:50;15.58;53.52
70867;HTU21D;58487;53.474;49.470;2023-04-03T16:30:16;15.41;53.15
70867;HTU21D;58487;53.474;49.470;2023-04-03T16:32:43;15.36;52.85
70867;HTU21D;58487;53.474;49.470;2023-04-03T16:35:10;15.41;52.91
70867;HTU21D;58487;53.474;49.470;2023-04-03T16:37:38;15.25;52.50
70867;HTU21D;58487;53.474;49.470;2023-04-03T16:40:06;15.17;53.22
70867;HTU21D;58487;53.474;49.470;2023-04-03T16:42:33;15.27;52.89
70867;HTU21D;58487;53.474;49.470;2023-04-03T16:44:59;15.23;51.77
70867;HTU21D;58487;53.474;49.470;2023-04-03T16:47:28;15.21;51.24
70867;HTU21D;58487;53.474;49.470;2023-04-03T16:49:59;15.36;50.98
70867;HTU21D;58487;53.474;49.470;2023-04-03T16:52:25;15.16;52.11
70867;HTU21D;58487;53.474;49.470;2023-04-03T16:54:51;15.09;52.59
70867;HTU21D;58487;53.474;49.470;2023-04-03T16:57:22;15.17;52.52
70867;HTU21D;58487;53.474;49.470;2023-04-03T16:59:51;15.38;50.94
70867;HTU21D;58487;53.474;49.470;2023-04-03T17:02:23;15.19;52.91
70867;HTU21D;58487;53.474;49.470;2023-04-03T17:04:53;15.00;53.39
70867;HTU21D;58487;53.474;49.470;2023-04-03T17:07:20;14.85;52.95
70867;HTU21D;58487;53.474;49.470;2023-04-03T17:09:47;14.74;53.30